createdAt,value
2018-09-30T00:03:31.736Z,99.90
2018-09-30T00:08:24.966Z,99.90
2018-09-30T00:13:18.208Z,99.90
2018-09-30T00:18:11.478Z,99.90
2018-09-30T00:23:04.760Z,99.90
2018-09-30T00:27:58.025Z,99.90
2018-09-30T00:32:51.586Z,99.90
2018-09-30T00:37:44.822Z,99.90
2018-09-30T00:42:38.101Z,99.90
2018-09-30T00:47:31.347Z,99.90
2018-09-30T00:52:25.200Z,99.90
2018-09-30T00:57:18.511Z,99.90
2018-09-30T01:02:11.785Z,99.90
2018-09-30T01:07:05.345Z,99.90
2018-09-30T01:11:58.597Z,99.90
2018-09-30T01:16:51.856Z,99.90
2018-09-30T01:21:45.174Z,99.90
2018-09-30T01:26:38.409Z,99.90
2018-09-30T01:31:31.663Z,99.90
2018-09-30T01:36:24.924Z,99.90
2018-09-30T01:41:18.188Z,99.90
2018-09-30T01:46:11.439Z,99.90
2018-09-30T01:51:04.680Z,99.90
2018-09-30T01:55:57.970Z,99.90
2018-09-30T02:00:51.192Z,99.90
2018-09-30T02:05:44.469Z,99.90
2018-09-30T02:10:37.693Z,99.90
2018-09-30T02:15:30.944Z,99.90
2018-09-30T02:20:24.204Z,99.90
2018-09-30T02:25:17.540Z,99.90
2018-09-30T02:30:10.776Z,99.90
2018-09-30T02:35:04.138Z,99.90
2018-09-30T02:39:57.371Z,99.90
2018-09-30T02:44:50.600Z,99.90
2018-09-30T02:49:43.808Z,99.90
2018-09-30T02:54:37.704Z,99.90
2018-09-30T02:59:30.918Z,99.90
2018-09-30T03:04:24.198Z,99.90
2018-09-30T03:09:18.471Z,99.90
2018-09-30T03:14:13.070Z,99.90
2018-09-30T03:19:06.351Z,99.90
2018-09-30T03:23:59.593Z,99.90
2018-09-30T03:28:52.894Z,99.90
2018-09-30T03:33:46.124Z,99.90
2018-09-30T03:38:39.356Z,99.90
2018-09-30T03:43:32.593Z,99.90
2018-09-30T03:48:26.593Z,99.90
2018-09-30T03:53:19.836Z,99.90
2018-09-30T03:58:13.121Z,99.90
2018-09-30T04:03:06.461Z,99.90
2018-09-30T04:07:59.707Z,99.90
2018-09-30T04:12:53.503Z,99.90
2018-09-30T04:17:46.759Z,99.90
2018-09-30T04:22:40.486Z,99.90
2018-09-30T04:27:33.739Z,99.90
2018-09-30T04:32:26.981Z,99.90
2018-09-30T04:37:20.238Z,99.90
2018-09-30T04:42:13.493Z,99.90
2018-09-30T04:47:06.812Z,99.90
2018-09-30T04:52:00.027Z,99.90
2018-09-30T04:56:53.317Z,99.90
2018-09-30T05:01:46.549Z,99.90
2018-09-30T05:06:39.779Z,99.90
2018-09-30T05:11:33.008Z,99.90
2018-09-30T05:16:26.279Z,99.90
2018-09-30T05:21:19.548Z,99.90
2018-09-30T05:26:12.827Z,99.90
2018-09-30T05:31:06.139Z,99.90
2018-09-30T05:35:59.376Z,99.90
2018-09-30T05:40:52.623Z,99.90
2018-09-30T05:45:45.877Z,99.90
2018-09-30T05:50:39.136Z,99.90
2018-09-30T05:55:32.364Z,99.90
2018-09-30T06:00:25.582Z,99.90
2018-09-30T06:05:18.836Z,99.90
2018-09-30T06:10:12.125Z,99.90
2018-09-30T06:15:05.416Z,99.90
2018-09-30T06:19:58.748Z,99.90
2018-09-30T06:24:51.991Z,99.90
2018-09-30T06:29:45.271Z,99.90
2018-09-30T06:34:38.536Z,99.90
2018-09-30T06:39:31.902Z,99.90
2018-09-30T06:44:25.929Z,99.90
2018-09-30T06:49:19.180Z,99.90
2018-09-30T06:54:13.127Z,99.90
2018-09-30T06:59:06.451Z,99.90
2018-09-30T07:03:59.685Z,99.90
2018-09-30T07:08:52.916Z,99.90
2018-09-30T07:13:46.157Z,99.90
2018-09-30T07:18:39.403Z,99.90
2018-09-30T07:23:32.644Z,99.90
2018-09-30T07:28:25.909Z,99.90
2018-09-30T07:33:19.143Z,99.90
2018-09-30T07:38:12.404Z,99.90
2018-09-30T07:43:05.622Z,99.90
2018-09-30T07:47:59.504Z,97.80
2018-09-30T07:52:53.411Z,97.10
2018-09-30T07:57:46.634Z,96.20
2018-09-30T08:02:39.940Z,95.40
2018-09-30T08:07:33.205Z,96.10
2018-09-30T08:12:26.747Z,94.90
2018-09-30T08:17:20.107Z,93.30
2018-09-30T08:22:13.321Z,91.50
2018-09-30T08:27:06.655Z,91.60
2018-09-30T08:32:00.530Z,90.30
2018-09-30T08:36:53.785Z,89.60
2018-09-30T08:41:47.057Z,87.60
2018-09-30T08:46:40.416Z,85.40
2018-09-30T08:51:33.687Z,86.60
2018-09-30T08:56:26.929Z,89.00
2018-09-30T09:01:20.167Z,86.10
2018-09-30T09:06:13.408Z,82.20
2018-09-30T09:11:07.003Z,82.70
2018-09-30T09:16:00.198Z,80.30
2018-09-30T09:20:53.511Z,80.80
2018-09-30T09:25:46.803Z,80.00
2018-09-30T09:30:40.381Z,82.00
2018-09-30T09:35:33.641Z,80.90
2018-09-30T09:40:27.803Z,77.50
2018-09-30T09:45:21.055Z,77.40
2018-09-30T09:50:14.308Z,81.00
2018-09-30T09:55:07.631Z,84.30
2018-09-30T10:00:00.909Z,82.00
2018-09-30T10:04:54.189Z,82.70
2018-09-30T10:09:47.425Z,82.10
2018-09-30T10:14:40.658Z,84.90
2018-09-30T10:19:33.933Z,84.50
2018-09-30T10:24:27.157Z,85.50
2018-09-30T10:29:20.479Z,89.10
2018-09-30T10:34:13.707Z,88.70
2018-09-30T10:39:09.330Z,88.40
2018-09-30T10:44:02.561Z,88.50
2018-09-30T10:48:55.814Z,88.80
2018-09-30T10:53:49.076Z,86.60
2018-09-30T10:58:42.329Z,84.70
2018-09-30T11:03:36.311Z,83.50
2018-09-30T11:08:29.561Z,84.20
2018-09-30T11:13:23.356Z,85.40
2018-09-30T11:18:16.606Z,83.20
2018-09-30T11:23:09.861Z,83.20
2018-09-30T11:28:03.116Z,84.60
2018-09-30T11:32:56.356Z,83.80
2018-09-30T11:37:49.604Z,83.20
2018-09-30T11:42:42.915Z,83.10
2018-09-30T11:47:36.175Z,82.10
2018-09-30T11:52:29.493Z,81.80
2018-09-30T11:57:22.733Z,82.20
2018-09-30T12:02:16.109Z,82.80
2018-09-30T12:07:16.410Z,81.30
2018-09-30T12:12:09.809Z,80.90
2018-09-30T12:17:03.046Z,80.70
2018-09-30T12:21:56.310Z,82.40
2018-09-30T12:26:49.541Z,81.60
2018-09-30T12:31:42.792Z,80.70
2018-09-30T12:36:36.207Z,81.30
2018-09-30T12:41:29.626Z,83.30
2018-09-30T12:46:22.853Z,83.00
2018-09-30T12:51:16.089Z,83.10
2018-09-30T12:56:09.437Z,81.80
2018-09-30T13:01:02.699Z,81.20
2018-09-30T13:05:56.065Z,81.90
2018-09-30T13:10:49.584Z,81.70
2018-09-30T13:15:42.867Z,78.90
2018-09-30T13:20:36.167Z,79.50
2018-09-30T13:25:29.384Z,78.90
2018-09-30T13:30:22.655Z,78.10
2018-09-30T13:35:15.904Z,77.20
2018-09-30T13:40:09.222Z,78.10
2018-09-30T13:45:02.465Z,78.30
2018-09-30T13:49:55.682Z,79.10
2018-09-30T13:54:49.064Z,79.50
2018-09-30T13:59:42.355Z,79.90
2018-09-30T14:04:35.597Z,80.00
2018-09-30T14:09:28.819Z,80.20
2018-09-30T14:14:22.091Z,78.80
2018-09-30T14:19:15.332Z,79.60
2018-09-30T14:24:09.571Z,80.30
2018-09-30T14:29:02.837Z,81.20
2018-09-30T14:33:56.629Z,78.70
2018-09-30T14:38:49.888Z,78.50
2018-09-30T14:43:43.231Z,76.80
2018-09-30T14:48:36.645Z,74.40
2018-09-30T14:53:29.909Z,73.30
2018-09-30T14:58:23.840Z,70.90
2018-09-30T15:03:17.101Z,68.20
2018-09-30T15:08:10.346Z,68.80
2018-09-30T15:13:03.738Z,68.40
2018-09-30T15:17:57.715Z,70.40
2018-09-30T15:22:51.049Z,71.30
2018-09-30T15:27:44.315Z,72.20
2018-09-30T15:32:38.563Z,73.40
2018-09-30T15:37:31.846Z,74.40
2018-09-30T15:47:18.298Z,75.60
2018-09-30T15:52:11.608Z,76.30
2018-09-30T15:57:04.864Z,77.10
2018-09-30T16:01:58.195Z,77.60
2018-09-30T16:06:51.455Z,77.40
2018-09-30T16:11:44.728Z,78.30
2018-09-30T16:16:37.987Z,79.40
2018-09-30T16:21:31.288Z,81.20
2018-09-30T16:26:24.639Z,81.60
2018-09-30T16:31:17.936Z,83.60
2018-09-30T16:36:11.231Z,84.80
2018-09-30T16:41:04.537Z,87.40
2018-09-30T16:45:58.370Z,89.20
2018-09-30T16:50:51.618Z,89.70
2018-09-30T16:55:44.895Z,90.50
2018-09-30T17:00:38.168Z,91.40
2018-09-30T17:05:31.539Z,92.40
2018-09-30T17:10:24.805Z,93.70
2018-09-30T17:15:19.782Z,95.20
2018-09-30T17:20:13.008Z,96.60
2018-09-30T17:25:06.324Z,97.70
2018-09-30T17:29:59.613Z,98.50
2018-09-30T17:34:52.876Z,99.50
2018-09-30T17:39:46.175Z,99.90
2018-09-30T17:44:40.102Z,99.90
2018-09-30T17:49:33.379Z,99.90
2018-09-30T17:54:26.665Z,99.90
2018-09-30T17:59:19.957Z,99.90
2018-09-30T18:04:13.442Z,99.90
2018-09-30T18:09:09.843Z,99.90
2018-09-30T18:14:03.402Z,99.90
2018-09-30T18:18:56.707Z,99.90
2018-09-30T18:23:50.822Z,99.90
2018-09-30T18:28:43.994Z,99.90
2018-09-30T18:33:37.338Z,99.90
2018-09-30T18:38:30.592Z,99.90
2018-09-30T18:43:23.847Z,99.90
2018-09-30T18:48:17.093Z,99.90
2018-09-30T18:53:10.505Z,99.90
2018-09-30T18:58:03.811Z,99.90
2018-09-30T19:02:57.195Z,99.90
2018-09-30T19:07:50.459Z,99.90
2018-09-30T19:12:43.842Z,99.90
2018-09-30T19:17:37.135Z,99.90
2018-09-30T19:22:30.467Z,99.90
2018-09-30T19:27:23.843Z,99.90
2018-09-30T19:32:17.217Z,99.90
2018-09-30T19:37:10.461Z,99.90
2018-09-30T19:42:03.721Z,99.90
2018-09-30T19:46:56.989Z,99.90
2018-09-30T19:51:50.243Z,99.90
2018-09-30T19:56:43.543Z,99.90
2018-09-30T20:01:36.960Z,99.90
2018-09-30T20:06:30.476Z,99.90
2018-09-30T20:11:23.817Z,99.90
2018-09-30T20:16:17.110Z,99.90
2018-09-30T20:21:10.359Z,99.90
2018-09-30T20:26:04.186Z,99.90
2018-09-30T20:30:58.410Z,99.90
2018-09-30T20:35:51.678Z,99.90
2018-09-30T20:40:44.943Z,99.90
2018-09-30T20:45:39.471Z,99.90
2018-09-30T20:50:32.861Z,99.90
2018-09-30T20:55:34.661Z,99.90
2018-09-30T21:00:34.470Z,99.90
2018-09-30T21:09:56.767Z,99.90
2018-09-30T21:14:50.076Z,99.90
2018-09-30T21:19:43.999Z,99.90
2018-09-30T21:24:37.285Z,99.90
2018-09-30T21:29:50.412Z,99.90
2018-09-30T21:34:43.650Z,99.90
2018-09-30T21:39:38.013Z,99.90
2018-09-30T21:44:31.291Z,99.90
2018-09-30T21:49:24.630Z,99.90
2018-09-30T21:54:17.905Z,99.90
2018-09-30T21:59:11.163Z,99.90
2018-09-30T22:04:04.395Z,99.90
2018-09-30T22:08:57.680Z,99.90
2018-09-30T22:13:50.952Z,99.90
2018-09-30T22:18:44.211Z,99.90
2018-09-30T22:23:37.482Z,99.90
2018-09-30T22:28:30.744Z,99.90
2018-09-30T22:33:23.994Z,99.90
2018-09-30T22:38:17.238Z,99.90
2018-09-30T22:43:10.624Z,99.90
2018-09-30T22:48:03.879Z,99.90
2018-09-30T22:52:57.220Z,99.90
2018-09-30T22:57:50.485Z,99.90
2018-09-30T23:02:43.757Z,99.90
2018-09-30T23:07:37.119Z,99.90
2018-09-30T23:12:30.465Z,99.90
2018-09-30T23:17:23.772Z,99.90
2018-09-30T23:22:18.128Z,99.90
2018-09-30T23:27:11.337Z,99.90
2018-09-30T23:32:04.594Z,99.90
2018-09-30T23:36:57.941Z,99.90
2018-09-30T23:41:51.192Z,99.90
2018-09-30T23:46:44.455Z,99.90
2018-09-30T23:51:37.771Z,99.90
2018-09-30T23:56:31.011Z,99.90
